Montpelier Junction, Vermont
Current Conditions -  °F | °C
As of 9:51 PM on Monday 26 Jan 2015 (Local Time) from KMPV Reporting Station
Broken Clouds Broken Clouds  
Wind Chill:   Ceiling: 11000
Heat Index:   Visibility: 10mi
Dew Point:   Wind: 3mph
Humidity: 73%   Direction: 350°N
Pressure: 30.06"   Gusts: NA
Location:  44.2861°N, 72.6004°W
Report Text: KMPV 270251Z AUTO 35003KT 10SM SCT090 BKN110 M13/M17 A3006 RMK AO2 SLP211 T11281167 58008
Loading
Personal Weather Stations






























Interactive Weather Map New forecast layout! Learn more

10-Day Weather Forecast

Advertisements
Track Severe Weather on mobile